Terminal Aerodrome Forecast
Issued by NWS Milwaukee/Sullivan, WI

Home | Current Version | Previous Version | Text Only | Print | Product List | Glossary On
Versions: 1 2 3 4 5 6 7 8 9 10 11 12 13 14 15 16 17 18 19 20 21 22 23 24 25 26 27 28 29 30 31 32 33 34 35 36 37 38 39 40 41 42 43 44 45 46 47 48 49 50
000
FTUS43 KMKX 302324
TAFMKE
TAF
KMKE 302324Z 3100/0106 29013G22KT P6SM FEW060
     FM310100 28009KT P6SM FEW060
     FM310200 26007KT P6SM FEW120
     FM311500 29011G20KT P6SM FEW050
     FM311700 29014G24KT P6SM FEW060 SCT200
     FM010100 30008KT P6SM SCT200=

USA.gov is the U.S. government's official web portal to all federal, state and local government web resources and services.